sensor_id;sensor_type;location;lat;lon;timestamp;P1;durP1;ratioP1;P2;durP2;ratioP2
65583;SDS011;62116;43.582;1.470;2023-02-01T00:00:09;16.38;;;8.43;;
65583;SDS011;62116;43.582;1.470;2023-02-01T00:02:35;18.90;;;9.10;;
65583;SDS011;62116;43.582;1.470;2023-02-01T00:05:04;18.27;;;8.88;;
65583;SDS011;62116;43.582;1.470;2023-02-01T00:07:30;20.88;;;9.38;;
65583;SDS011;62116;43.582;1.470;2023-02-01T00:09:56;20.75;;;9.00;;
65583;SDS011;62116;43.582;1.470;2023-02-01T00:12:21;23.23;;;10.80;;
65583;SDS011;62116;43.582;1.470;2023-02-01T00:14:46;25.90;;;11.00;;
65583;SDS011;62116;43.582;1.470;2023-02-01T00:17:13;26.75;;;11.52;;
65583;SDS011;62116;43.582;1.470;2023-02-01T00:19:38;26.00;;;11.23;;
65583;SDS011;62116;43.582;1.470;2023-02-01T00:22:04;22.88;;;11.60;;
65583;SDS011;62116;43.582;1.470;2023-02-01T00:24:29;26.63;;;12.45;;
65583;SDS011;62116;43.582;1.470;2023-02-01T00:26:55;25.63;;;11.65;;
65583;SDS011;62116;43.582;1.470;2023-02-01T00:29:20;22.25;;;10.93;;
65583;SDS011;62116;43.582;1.470;2023-02-01T00:31:46;20.92;;;10.15;;
65583;SDS011;62116;43.582;1.470;2023-02-01T00:34:12;20.02;;;9.90;;
65583;SDS011;62116;43.582;1.470;2023-02-01T00:36:40;17.67;;;9.23;;
65583;SDS011;62116;43.582;1.470;2023-02-01T00:39:06;19.73;;;9.38;;
65583;SDS011;62116;43.582;1.470;2023-02-01T00:41:32;16.38;;;9.18;;
65583;SDS011;62116;43.582;1.470;2023-02-01T00:43:57;16.75;;;8.63;;
65583;SDS011;62116;43.582;1.470;2023-02-01T00:46:23;16.00;;;8.65;;
65583;SDS011;62116;43.582;1.470;2023-02-01T00:48:49;14.55;;;7.63;;
65583;SDS011;62116;43.582;1.470;2023-02-01T00:51:15;14.20;;;7.68;;
65583;SDS011;62116;43.582;1.470;2023-02-01T00:53:43;15.52;;;7.90;;
65583;SDS011;62116;43.582;1.470;2023-02-01T00:56:09;12.73;;;7.30;;
65583;SDS011;62116;43.582;1.470;2023-02-01T00:58:34;13.65;;;7.25;;
65583;SDS011;62116;43.582;1.470;2023-02-01T01:01:16;12.80;;;7.05;;
65583;SDS011;62116;43.582;1.470;2023-02-01T01:03:45;12.23;;;7.30;;
65583;SDS011;62116;43.582;1.470;2023-02-01T01:06:13;16.00;;;7.50;;
65583;SDS011;62116;43.582;1.470;2023-02-01T01:08:40;12.35;;;7.32;;
65583;SDS011;62116;43.582;1.470;2023-02-01T01:11:07;14.50;;;7.43;;
65583;SDS011;62116;43.582;1.470;2023-02-01T01:13:38;13.63;;;7.78;;
65583;SDS011;62116;43.582;1.470;2023-02-01T01:16:05;13.40;;;7.20;;
65583;SDS011;62116;43.582;1.470;2023-02-01T01:18:31;14.40;;;8.02;;
65583;SDS011;62116;43.582;1.470;2023-02-01T01:20:58;15.13;;;7.82;;
65583;SDS011;62116;43.582;1.470;2023-02-01T01:23:24;14.35;;;7.97;;
65583;SDS011;62116;43.582;1.470;2023-02-01T01:25:49;13.00;;;7.95;;
65583;SDS011;62116;43.582;1.470;2023-02-01T01:28:15;15.35;;;7.57;;
65583;SDS011;62116;43.582;1.470;2023-02-01T01:30:40;12.85;;;7.43;;
65583;SDS011;62116;43.582;1.470;2023-02-01T01:33:05;15.30;;;7.78;;
65583;SDS011;62116;43.582;1.470;2023-02-01T01:35:31;16.67;;;8.40;;
65583;SDS011;62116;43.582;1.470;2023-02-01T01:37:57;14.63;;;7.80;;
65583;SDS011;62116;43.582;1.470;2023-02-01T01:40:24;14.75;;;7.88;;
65583;SDS011;62116;43.582;1.470;2023-02-01T01:42:50;15.10;;;7.60;;
65583;SDS011;62116;43.582;1.470;2023-02-01T01:45:34;14.80;;;7.95;;
65583;SDS011;62116;43.582;1.470;2023-02-01T01:48:11;13.05;;;7.15;;
65583;SDS011;62116;43.582;1.470;2023-02-01T01:53:11;13.98;;;6.55;;
65583;SDS011;62116;43.582;1.470;2023-02-01T01:55:38;11.63;;;6.38;;
65583;SDS011;62116;43.582;1.470;2023-02-01T01:58:12;12.65;;;6.30;;
65583;SDS011;62116;43.582;1.470;2023-02-01T02:00:41;10.27;;;5.85;;
65583;SDS011;62116;43.582;1.470;2023-02-01T02:03:09;11.05;;;5.68;;
65583;SDS011;62116;43.582;1.470;2023-02-01T02:05:39;10.43;;;5.70;;
65583;SDS011;62116;43.582;1.470;2023-02-01T02:08:05;10.73;;;5.93;;
65583;SDS011;62116;43.582;1.470;2023-02-01T02:10:31;9.82;;;5.40;;
65583;SDS011;62116;43.582;1.470;2023-02-01T02:13:15;10.85;;;5.63;;
65583;SDS011;62116;43.582;1.470;2023-02-01T02:15:45;11.43;;;4.95;;
65583;SDS011;62116;43.582;1.470;2023-02-01T02:18:19;10.60;;;5.50;;
65583;SDS011;62116;43.582;1.470;2023-02-01T02:23:43;11.13;;;5.30;;
65583;SDS011;62116;43.582;1.470;2023-02-01T02:29:31;9.70;;;4.95;;
65583;SDS011;62116;43.582;1.470;2023-02-01T02:34:57;9.38;;;4.90;;
65583;SDS011;62116;43.582;1.470;2023-02-01T02:37:35;10.98;;;5.25;;
65583;SDS011;62116;43.582;1.470;2023-02-01T02:42:43;8.65;;;4.82;;
65583;SDS011;62116;43.582;1.470;2023-02-01T02:45:53;12.18;;;5.00;;
65583;SDS011;62116;43.582;1.470;2023-02-01T02:48:46;10.00;;;4.43;;
65583;SDS011;62116;43.582;1.470;2023-02-01T02:54:11;10.68;;;4.35;;
65583;SDS011;62116;43.582;1.470;2023-02-01T02:56:59;10.57;;;5.00;;
65583;SDS011;62116;43.582;1.470;2023-02-01T02:59:45;11.20;;;4.63;;
65583;SDS011;62116;43.582;1.470;2023-02-01T03:02:31;8.68;;;4.50;;
65583;SDS011;62116;43.582;1.470;2023-02-01T03:05:16;8.68;;;3.88;;
65583;SDS011;62116;43.582;1.470;2023-02-01T03:13:19;7.78;;;3.90;;
65583;SDS011;62116;43.582;1.470;2023-02-01T03:18:31;8.82;;;3.85;;
65583;SDS011;62116;43.582;1.470;2023-02-01T03:21:12;7.75;;;3.28;;
65583;SDS011;62116;43.582;1.470;2023-02-01T03:23:44;7.30;;;3.67;;
65583;SDS011;62116;43.582;1.470;2023-02-01T03:26:13;6.28;;;3.20;;
65583;SDS011;62116;43.582;1.470;2023-02-01T03:28:43;5.15;;;3.17;;
65583;SDS011;62116;43.582;1.470;2023-02-01T03:31:14;8.05;;;3.08;;
65583;SDS011;62116;43.582;1.470;2023-02-01T03:33:40;5.57;;;3.15;;
65583;SDS011;62116;43.582;1.470;2023-02-01T03:38:49;7.07;;;3.30;;
65583;SDS011;62116;43.582;1.470;2023-02-01T03:44:26;7.30;;;3.60;;
65583;SDS011;62116;43.582;1.470;2023-02-01T03:47:03;7.00;;;3.47;;
65583;SDS011;62116;43.582;1.470;2023-02-01T03:49:38;7.90;;;3.45;;
65583;SDS011;62116;43.582;1.470;2023-02-01T03:52:09;5.75;;;3.20;;
65583;SDS011;62116;43.582;1.470;2023-02-01T03:54:39;6.38;;;3.45;;
65583;SDS011;62116;43.582;1.470;2023-02-01T03:57:07;6.55;;;3.45;;
65583;SDS011;62116;43.582;1.470;2023-02-01T03:59:43;5.13;;;3.10;;
65583;SDS011;62116;43.582;1.470;2023-02-01T04:02:09;6.82;;;3.17;;
65583;SDS011;62116;43.582;1.470;2023-02-01T04:04:35;5.90;;;3.05;;
65583;SDS011;62116;43.582;1.470;2023-02-01T04:07:01;4.47;;;2.65;;
65583;SDS011;62116;43.582;1.470;2023-02-01T04:09:26;5.38;;;3.10;;
65583;SDS011;62116;43.582;1.470;2023-02-01T04:11:52;7.00;;;3.28;;
65583;SDS011;62116;43.582;1.470;2023-02-01T04:14:17;7.85;;;3.13;;
65583;SDS011;62116;43.582;1.470;2023-02-01T04:16:43;5.25;;;3.00;;
65583;SDS011;62116;43.582;1.470;2023-02-01T04:19:08;5.53;;;3.00;;
65583;SDS011;62116;43.582;1.470;2023-02-01T04:21:33;6.35;;;2.65;;
65583;SDS011;62116;43.582;1.470;2023-02-01T04:23:59;6.75;;;3.10;;
65583;SDS011;62116;43.582;1.470;2023-02-01T04:26:24;9.07;;;3.10;;
65583;SDS011;62116;43.582;1.470;2023-02-01T04:28:50;6.20;;;2.97;;
65583;SDS011;62116;43.582;1.470;2023-02-01T04:31:17;4.97;;;2.80;;
65583;SDS011;62116;43.582;1.470;2023-02-01T04:33:50;5.55;;;3.13;;
65583;SDS011;62116;43.582;1.470;2023-02-01T04:36:20;7.63;;;3.10;;
65583;SDS011;62116;43.582;1.470;2023-02-01T04:38:50;7.80;;;3.15;;
65583;SDS011;62116;43.582;1.470;2023-02-01T04:41:16;4.60;;;2.78;;
65583;SDS011;62116;43.582;1.470;2023-02-01T04:43:47;5.25;;;3.00;;
65583;SDS011;62116;43.582;1.470;2023-02-01T04:46:14;8.63;;;3.00;;
65583;SDS011;62116;43.582;1.470;2023-02-01T04:48:40;6.32;;;3.00;;
65583;SDS011;62116;43.582;1.470;2023-02-01T04:51:05;4.95;;;2.65;;
65583;SDS011;62116;43.582;1.470;2023-02-01T04:53:31;6.82;;;3.10;;
65583;SDS011;62116;43.582;1.470;2023-02-01T04:55:57;5.55;;;3.15;;
65583;SDS011;62116;43.582;1.470;2023-02-01T04:58:22;6.30;;;3.50;;
65583;SDS011;62116;43.582;1.470;2023-02-01T05:00:48;5.43;;;2.90;;
65583;SDS011;62116;43.582;1.470;2023-02-01T05:03:14;6.43;;;3.10;;
65583;SDS011;62116;43.582;1.470;2023-02-01T05:05:40;5.38;;;3.00;;
65583;SDS011;62116;43.582;1.470;2023-02-01T05:08:05;5.80;;;3.30;;
65583;SDS011;62116;43.582;1.470;2023-02-01T05:10:33;6.32;;;3.20;;
65583;SDS011;62116;43.582;1.470;2023-02-01T05:12:59;7.25;;;3.50;;
65583;SDS011;62116;43.582;1.470;2023-02-01T05:15:42;6.05;;;3.22;;
65583;SDS011;62116;43.582;1.470;2023-02-01T05:18:08;5.85;;;3.10;;
65583;SDS011;62116;43.582;1.470;2023-02-01T05:20:33;5.72;;;3.15;;
65583;SDS011;62116;43.582;1.470;2023-02-01T05:22:59;6.20;;;2.90;;
65583;SDS011;62116;43.582;1.470;2023-02-01T05:25:24;6.40;;;3.10;;
65583;SDS011;62116;43.582;1.470;2023-02-01T05:27:50;5.18;;;3.00;;
65583;SDS011;62116;43.582;1.470;2023-02-01T05:30:15;5.30;;;2.80;;
65583;SDS011;62116;43.582;1.470;2023-02-01T05:32:41;6.43;;;3.22;;
65583;SDS011;62116;43.582;1.470;2023-02-01T05:35:06;7.55;;;2.88;;
65583;SDS011;62116;43.582;1.470;2023-02-01T05:37:32;5.05;;;3.05;;
65583;SDS011;62116;43.582;1.470;2023-02-01T05:39:58;5.20;;;3.15;;
65583;SDS011;62116;43.582;1.470;2023-02-01T05:42:23;6.85;;;3.30;;
65583;SDS011;62116;43.582;1.470;2023-02-01T05:44:48;6.45;;;3.10;;
65583;SDS011;62116;43.582;1.470;2023-02-01T05:47:14;5.88;;;3.10;;
65583;SDS011;62116;43.582;1.470;2023-02-01T05:49:39;7.22;;;2.83;;
65583;SDS011;62116;43.582;1.470;2023-02-01T05:52:04;6.22;;;3.00;;
65583;SDS011;62116;43.582;1.470;2023-02-01T05:54:30;4.75;;;2.67;;
65583;SDS011;62116;43.582;1.470;2023-02-01T05:56:55;5.35;;;2.53;;
65583;SDS011;62116;43.582;1.470;2023-02-01T05:59:21;6.32;;;2.80;;
65583;SDS011;62116;43.582;1.470;2023-02-01T06:01:46;4.50;;;2.78;;
65583;SDS011;62116;43.582;1.470;2023-02-01T06:04:12;6.03;;;2.50;;
65583;SDS011;62116;43.582;1.470;2023-02-01T06:06:37;5.13;;;2.83;;
65583;SDS011;62116;43.582;1.470;2023-02-01T06:09:03;7.50;;;2.60;;
65583;SDS011;62116;43.582;1.470;2023-02-01T06:11:28;4.93;;;2.78;;
65583;SDS011;62116;43.582;1.470;2023-02-01T06:13:54;4.50;;;2.42;;
65583;SDS011;62116;43.582;1.470;2023-02-01T06:16:20;5.28;;;2.42;;
65583;SDS011;62116;43.582;1.470;2023-02-01T06:18:46;5.15;;;2.50;;
65583;SDS011;62116;43.582;1.470;2023-02-01T06:21:11;7.63;;;2.60;;
65583;SDS011;62116;43.582;1.470;2023-02-01T06:23:38;4.65;;;2.20;;
65583;SDS011;62116;43.582;1.470;2023-02-01T06:26:05;5.55;;;2.53;;
65583;SDS011;62116;43.582;1.470;2023-02-01T06:28:33;4.60;;;2.33;;
65583;SDS011;62116;43.582;1.470;2023-02-01T06:31:02;4.38;;;2.35;;
65583;SDS011;62116;43.582;1.470;2023-02-01T06:33:32;4.47;;;2.15;;
65583;SDS011;62116;43.582;1.470;2023-02-01T06:35:59;6.40;;;2.70;;
65583;SDS011;62116;43.582;1.470;2023-02-01T06:38:25;7.20;;;2.33;;
65583;SDS011;62116;43.582;1.470;2023-02-01T06:40:52;4.80;;;2.42;;
65583;SDS011;62116;43.582;1.470;2023-02-01T06:43:18;4.90;;;2.65;;
65583;SDS011;62116;43.582;1.470;2023-02-01T06:45:43;7.55;;;2.58;;
65583;SDS011;62116;43.582;1.470;2023-02-01T06:48:09;7.45;;;2.80;;
65583;SDS011;62116;43.582;1.470;2023-02-01T06:50:34;5.00;;;2.45;;
65583;SDS011;62116;43.582;1.470;2023-02-01T06:53:00;8.40;;;3.00;;
65583;SDS011;62116;43.582;1.470;2023-02-01T06:55:25;5.50;;;3.13;;
65583;SDS011;62116;43.582;1.470;2023-02-01T06:57:54;10.13;;;3.75;;
65583;SDS011;62116;43.582;1.470;2023-02-01T07:00:20;7.35;;;3.40;;
65583;SDS011;62116;43.582;1.470;2023-02-01T07:02:46;10.10;;;4.00;;
65583;SDS011;62116;43.582;1.470;2023-02-01T07:05:12;6.65;;;3.85;;
65583;SDS011;62116;43.582;1.470;2023-02-01T07:07:37;10.48;;;4.32;;
65583;SDS011;62116;43.582;1.470;2023-02-01T07:10:02;7.32;;;3.30;;
65583;SDS011;62116;43.582;1.470;2023-02-01T07:12:28;8.90;;;3.72;;
65583;SDS011;62116;43.582;1.470;2023-02-01T07:14:53;9.98;;;3.50;;
65583;SDS011;62116;43.582;1.470;2023-02-01T07:17:19;7.53;;;3.50;;
65583;SDS011;62116;43.582;1.470;2023-02-01T07:19:44;7.72;;;3.45;;
65583;SDS011;62116;43.582;1.470;2023-02-01T07:22:10;5.95;;;3.38;;
65583;SDS011;62116;43.582;1.470;2023-02-01T07:24:35;9.38;;;4.15;;
65583;SDS011;62116;43.582;1.470;2023-02-01T07:27:00;9.57;;;3.70;;
65583;SDS011;62116;43.582;1.470;2023-02-01T07:29:26;10.38;;;3.80;;
65583;SDS011;62116;43.582;1.470;2023-02-01T07:31:51;14.77;;;4.43;;
65583;SDS011;62116;43.582;1.470;2023-02-01T07:34:16;11.05;;;4.28;;
65583;SDS011;62116;43.582;1.470;2023-02-01T07:36:42;10.25;;;3.75;;
65583;SDS011;62116;43.582;1.470;2023-02-01T07:39:07;10.18;;;3.60;;
65583;SDS011;62116;43.582;1.470;2023-02-01T07:41:33;10.30;;;3.50;;
65583;SDS011;62116;43.582;1.470;2023-02-01T07:43:58;6.22;;;3.40;;
65583;SDS011;62116;43.582;1.470;2023-02-01T07:46:24;6.88;;;3.20;;
65583;SDS011;62116;43.582;1.470;2023-02-01T07:48:49;10.73;;;3.35;;
65583;SDS011;62116;43.582;1.470;2023-02-01T07:51:15;11.27;;;3.90;;
65583;SDS011;62116;43.582;1.470;2023-02-01T07:53:42;8.10;;;3.53;;
65583;SDS011;62116;43.582;1.470;2023-02-01T07:56:12;8.25;;;3.65;;
65583;SDS011;62116;43.582;1.470;2023-02-01T07:58:40;9.02;;;3.90;;
65583;SDS011;62116;43.582;1.470;2023-02-01T08:01:05;7.72;;;3.63;;
65583;SDS011;62116;43.582;1.470;2023-02-01T08:03:48;7.57;;;3.03;;
65583;SDS011;62116;43.582;1.470;2023-02-01T08:06:16;7.43;;;3.57;;
65583;SDS011;62116;43.582;1.470;2023-02-01T08:08:41;9.45;;;3.55;;
65583;SDS011;62116;43.582;1.470;2023-02-01T08:11:09;7.70;;;3.47;;
65583;SDS011;62116;43.582;1.470;2023-02-01T08:13:35;6.97;;;3.25;;
65583;SDS011;62116;43.582;1.470;2023-02-01T08:16:02;8.20;;;3.58;;
65583;SDS011;62116;43.582;1.470;2023-02-01T08:18:29;7.03;;;3.30;;
65583;SDS011;62116;43.582;1.470;2023-02-01T08:20:55;8.82;;;3.30;;
65583;SDS011;62116;43.582;1.470;2023-02-01T08:23:21;6.15;;;3.45;;
65583;SDS011;62116;43.582;1.470;2023-02-01T08:25:47;7.35;;;3.40;;
65583;SDS011;62116;43.582;1.470;2023-02-01T08:28:13;5.03;;;3.20;;
65583;SDS011;62116;43.582;1.470;2023-02-01T08:30:39;9.23;;;3.75;;
65583;SDS011;62116;43.582;1.470;2023-02-01T08:33:06;9.73;;;3.78;;
65583;SDS011;62116;43.582;1.470;2023-02-01T08:35:33;8.73;;;3.63;;
65583;SDS011;62116;43.582;1.470;2023-02-01T08:38:00;7.13;;;3.45;;
65583;SDS011;62116;43.582;1.470;2023-02-01T08:40:26;7.57;;;3.38;;
65583;SDS011;62116;43.582;1.470;2023-02-01T08:42:51;7.15;;;3.35;;
65583;SDS011;62116;43.582;1.470;2023-02-01T08:45:27;9.05;;;3.38;;
65583;SDS011;62116;43.582;1.470;2023-02-01T08:47:55;6.32;;;3.70;;
65583;SDS011;62116;43.582;1.470;2023-02-01T08:50:21;6.40;;;3.20;;
65583;SDS011;62116;43.582;1.470;2023-02-01T08:52:47;5.75;;;2.90;;
65583;SDS011;62116;43.582;1.470;2023-02-01T08:55:13;6.55;;;2.70;;
65583;SDS011;62116;43.582;1.470;2023-02-01T08:57:39;5.57;;;2.60;;
65583;SDS011;62116;43.582;1.470;2023-02-01T09:00:05;5.28;;;2.60;;
65583;SDS011;62116;43.582;1.470;2023-02-01T09:02:33;7.63;;;3.00;;
65583;SDS011;62116;43.582;1.470;2023-02-01T09:04:58;5.25;;;2.92;;
65583;SDS011;62116;43.582;1.470;2023-02-01T09:07:24;5.38;;;2.50;;
65583;SDS011;62116;43.582;1.470;2023-02-01T09:09:49;4.00;;;2.10;;
65583;SDS011;62116;43.582;1.470;2023-02-01T09:12:16;6.60;;;2.33;;
65583;SDS011;62116;43.582;1.470;2023-02-01T09:14:41;4.28;;;2.15;;
65583;SDS011;62116;43.582;1.470;2023-02-01T09:17:07;5.10;;;2.25;;
65583;SDS011;62116;43.582;1.470;2023-02-01T09:19:32;7.22;;;2.13;;
65583;SDS011;62116;43.582;1.470;2023-02-01T09:21:58;5.25;;;2.10;;
65583;SDS011;62116;43.582;1.470;2023-02-01T09:24:23;6.57;;;2.20;;
65583;SDS011;62116;43.582;1.470;2023-02-01T09:26:48;8.98;;;2.28;;
65583;SDS011;62116;43.582;1.470;2023-02-01T09:29:14;7.50;;;1.80;;
65583;SDS011;62116;43.582;1.470;2023-02-01T09:31:40;8.88;;;2.08;;
65583;SDS011;62116;43.582;1.470;2023-02-01T09:34:05;7.88;;;2.20;;
65583;SDS011;62116;43.582;1.470;2023-02-01T09:36:32;7.25;;;2.10;;
65583;SDS011;62116;43.582;1.470;2023-02-01T09:38:58;8.13;;;1.98;;
65583;SDS011;62116;43.582;1.470;2023-02-01T09:47:01;8.93;;;2.10;;
65583;SDS011;62116;43.582;1.470;2023-02-01T09:49:32;6.10;;;1.90;;
65583;SDS011;62116;43.582;1.470;2023-02-01T09:52:00;7.18;;;2.17;;
65583;SDS011;62116;43.582;1.470;2023-02-01T09:54:33;5.93;;;2.20;;
65583;SDS011;62116;43.582;1.470;2023-02-01T09:57:08;6.18;;;2.08;;
65583;SDS011;62116;43.582;1.470;2023-02-01T09:59:41;11.65;;;2.00;;
65583;SDS011;62116;43.582;1.470;2023-02-01T10:02:14;9.30;;;1.80;;
65583;SDS011;62116;43.582;1.470;2023-02-01T10:04:43;7.95;;;2.10;;
65583;SDS011;62116;43.582;1.470;2023-02-01T10:13:09;7.50;;;1.88;;
65583;SDS011;62116;43.582;1.470;2023-02-01T10:21:46;10.00;;;1.98;;
65583;SDS011;62116;43.582;1.470;2023-02-01T10:24:36;8.55;;;1.80;;
65583;SDS011;62116;43.582;1.470;2023-02-01T10:29:37;9.00;;;2.03;;
65583;SDS011;62116;43.582;1.470;2023-02-01T10:32:16;8.63;;;1.73;;
65583;SDS011;62116;43.582;1.470;2023-02-01T10:34:48;9.07;;;1.60;;
65583;SDS011;62116;43.582;1.470;2023-02-01T10:39:53;5.90;;;1.73;;
65583;SDS011;62116;43.582;1.470;2023-02-01T10:42:21;12.90;;;1.80;;
65583;SDS011;62116;43.582;1.470;2023-02-01T10:44:50;8.47;;;1.70;;
65583;SDS011;62116;43.582;1.470;2023-02-01T10:47:15;6.60;;;1.83;;
65583;SDS011;62116;43.582;1.470;2023-02-01T10:55:31;8.57;;;2.40;;
65583;SDS011;62116;43.582;1.470;2023-02-01T10:58:14;7.38;;;1.67;;
65583;SDS011;62116;43.582;1.470;2023-02-01T11:00:49;8.65;;;1.80;;
65583;SDS011;62116;43.582;1.470;2023-02-01T11:04:01;8.52;;;1.63;;
65583;SDS011;62116;43.582;1.470;2023-02-01T11:08:56;7.22;;;1.60;;
65583;SDS011;62116;43.582;1.470;2023-02-01T11:11:23;11.10;;;2.13;;
65583;SDS011;62116;43.582;1.470;2023-02-01T11:13:52;7.05;;;1.80;;
65583;SDS011;62116;43.582;1.470;2023-02-01T11:16:20;8.65;;;1.92;;
65583;SDS011;62116;43.582;1.470;2023-02-01T11:18:45;7.25;;;1.50;;
65583;SDS011;62116;43.582;1.470;2023-02-01T11:21:18;5.20;;;1.67;;
65583;SDS011;62116;43.582;1.470;2023-02-01T11:23:45;6.75;;;1.60;;
65583;SDS011;62116;43.582;1.470;2023-02-01T11:26:15;6.13;;;1.55;;
65583;SDS011;62116;43.582;1.470;2023-02-01T11:28:50;9.18;;;2.35;;
65583;SDS011;62116;43.582;1.470;2023-02-01T11:31:37;9.40;;;2.38;;
65583;SDS011;62116;43.582;1.470;2023-02-01T11:34:25;9.20;;;2.08;;
65583;SDS011;62116;43.582;1.470;2023-02-01T11:36:50;8.80;;;2.20;;
65583;SDS011;62116;43.582;1.470;2023-02-01T11:39:24;7.40;;;1.92;;
65583;SDS011;62116;43.582;1.470;2023-02-01T11:44:33;9.32;;;2.05;;
65583;SDS011;62116;43.582;1.470;2023-02-01T11:49:44;6.88;;;2.00;;
65583;SDS011;62116;43.582;1.470;2023-02-01T11:52:27;7.60;;;2.28;;
65583;SDS011;62116;43.582;1.470;2023-02-01T11:55:05;10.07;;;2.35;;
65583;SDS011;62116;43.582;1.470;2023-02-01T11:58:06;9.57;;;2.25;;
65583;SDS011;62116;43.582;1.470;2023-02-01T12:03:39;5.82;;;1.73;;
65583;SDS011;62116;43.582;1.470;2023-02-01T12:06:14;5.82;;;1.67;;
65583;SDS011;62116;43.582;1.470;2023-02-01T12:22:04;7.15;;;1.90;;
65583;SDS011;62116;43.582;1.470;2023-02-01T12:25:05;8.05;;;2.20;;
65583;SDS011;62116;43.582;1.470;2023-02-01T12:27:56;4.60;;;1.92;;
65583;SDS011;62116;43.582;1.470;2023-02-01T12:30:41;6.50;;;1.80;;
65583;SDS011;62116;43.582;1.470;2023-02-01T12:46:27;4.82;;;2.00;;
65583;SDS011;62116;43.582;1.470;2023-02-01T12:51:44;6.47;;;1.90;;
65583;SDS011;62116;43.582;1.470;2023-02-01T12:54:20;5.45;;;2.35;;
65583;SDS011;62116;43.582;1.470;2023-02-01T12:56:55;3.92;;;1.83;;
65583;SDS011;62116;43.582;1.470;2023-02-01T12:59:35;4.78;;;1.95;;
65583;SDS011;62116;43.582;1.470;2023-02-01T13:02:21;7.32;;;2.22;;
65583;SDS011;62116;43.582;1.470;2023-02-01T13:04:55;5.75;;;1.88;;
65583;SDS011;62116;43.582;1.470;2023-02-01T13:10:15;2.92;;;1.70;;
65583;SDS011;62116;43.582;1.470;2023-02-01T13:13:14;5.65;;;1.60;;
65583;SDS011;62116;43.582;1.470;2023-02-01T13:15:46;4.22;;;1.60;;
65583;SDS011;62116;43.582;1.470;2023-02-01T13:18:19;4.82;;;1.50;;
65583;SDS011;62116;43.582;1.470;2023-02-01T13:20:58;4.07;;;1.60;;
65583;SDS011;62116;43.582;1.470;2023-02-01T13:23:33;3.30;;;1.40;;
65583;SDS011;62116;43.582;1.470;2023-02-01T13:26:01;2.28;;;1.25;;
65583;SDS011;62116;43.582;1.470;2023-02-01T13:31:23;2.42;;;0.98;;
65583;SDS011;62116;43.582;1.470;2023-02-01T13:37:02;1.30;;;0.88;;
65583;SDS011;62116;43.582;1.470;2023-02-01T13:42:55;1.25;;;0.85;;
65583;SDS011;62116;43.582;1.470;2023-02-01T13:45:24;1.40;;;0.90;;
65583;SDS011;62116;43.582;1.470;2023-02-01T13:47:56;3.88;;;1.00;;
65583;SDS011;62116;43.582;1.470;2023-02-01T13:50:30;2.42;;;1.30;;
65583;SDS011;62116;43.582;1.470;2023-02-01T13:53:01;5.13;;;1.70;;
65583;SDS011;62116;43.582;1.470;2023-02-01T13:55:34;6.47;;;1.33;;
65583;SDS011;62116;43.582;1.470;2023-02-01T13:58:03;2.67;;;1.40;;
65583;SDS011;62116;43.582;1.470;2023-02-01T14:00:42;4.80;;;1.20;;
65583;SDS011;62116;43.582;1.470;2023-02-01T14:03:19;3.70;;;1.50;;
65583;SDS011;62116;43.582;1.470;2023-02-01T14:08:21;4.75;;;1.50;;
65583;SDS011;62116;43.582;1.470;2023-02-01T14:10:55;5.15;;;1.60;;
65583;SDS011;62116;43.582;1.470;2023-02-01T14:23:41;5.18;;;1.52;;
65583;SDS011;62116;43.582;1.470;2023-02-01T14:26:10;5.57;;;1.60;;
65583;SDS011;62116;43.582;1.470;2023-02-01T14:28:44;4.10;;;1.83;;
65583;SDS011;62116;43.582;1.470;2023-02-01T14:31:15;3.28;;;1.33;;
65583;SDS011;62116;43.582;1.470;2023-02-01T14:34:00;5.05;;;1.58;;
65583;SDS011;62116;43.582;1.470;2023-02-01T14:36:51;3.65;;;1.77;;
65583;SDS011;62116;43.582;1.470;2023-02-01T14:39:28;4.72;;;1.70;;
65583;SDS011;62116;43.582;1.470;2023-02-01T14:42:01;5.90;;;1.90;;
65583;SDS011;62116;43.582;1.470;2023-02-01T14:44:31;5.10;;;1.83;;
65583;SDS011;62116;43.582;1.470;2023-02-01T14:47:02;4.63;;;2.20;;
65583;SDS011;62116;43.582;1.470;2023-02-01T14:49:54;4.50;;;1.88;;
65583;SDS011;62116;43.582;1.470;2023-02-01T14:52:32;4.25;;;1.80;;
65583;SDS011;62116;43.582;1.470;2023-02-01T14:55:02;4.25;;;1.80;;
65583;SDS011;62116;43.582;1.470;2023-02-01T14:57:31;5.20;;;2.30;;
65583;SDS011;62116;43.582;1.470;2023-02-01T15:00:05;4.05;;;2.00;;
65583;SDS011;62116;43.582;1.470;2023-02-01T15:02:39;5.32;;;2.10;;
65583;SDS011;62116;43.582;1.470;2023-02-01T15:05:16;5.10;;;2.03;;
65583;SDS011;62116;43.582;1.470;2023-02-01T15:08:11;4.22;;;1.90;;
65583;SDS011;62116;43.582;1.470;2023-02-01T15:10:45;3.90;;;1.63;;
65583;SDS011;62116;43.582;1.470;2023-02-01T15:13:21;6.25;;;1.80;;
65583;SDS011;62116;43.582;1.470;2023-02-01T15:16:03;2.50;;;1.42;;
65583;SDS011;62116;43.582;1.470;2023-02-01T15:18:29;5.25;;;1.90;;
65583;SDS011;62116;43.582;1.470;2023-02-01T15:20:58;5.15;;;1.95;;
65583;SDS011;62116;43.582;1.470;2023-02-01T15:23:25;4.75;;;2.20;;
65583;SDS011;62116;43.582;1.470;2023-02-01T15:25:51;5.07;;;2.00;;
65583;SDS011;62116;43.582;1.470;2023-02-01T15:28:16;4.45;;;2.10;;
65583;SDS011;62116;43.582;1.470;2023-02-01T15:33:24;6.57;;;2.00;;
65583;SDS011;62116;43.582;1.470;2023-02-01T15:36:16;4.60;;;1.90;;
65583;SDS011;62116;43.582;1.470;2023-02-01T15:38:42;3.95;;;1.80;;
65583;SDS011;62116;43.582;1.470;2023-02-01T15:43:47;7.18;;;2.58;;
65583;SDS011;62116;43.582;1.470;2023-02-01T15:46:15;4.50;;;1.75;;
65583;SDS011;62116;43.582;1.470;2023-02-01T15:48:54;3.97;;;1.92;;
65583;SDS011;62116;43.582;1.470;2023-02-01T15:51:29;5.30;;;2.17;;
65583;SDS011;62116;43.582;1.470;2023-02-01T15:56:26;4.00;;;1.40;;
65583;SDS011;62116;43.582;1.470;2023-02-01T15:58:55;3.53;;;1.52;;
65583;SDS011;62116;43.582;1.470;2023-02-01T16:01:23;3.05;;;1.63;;
65583;SDS011;62116;43.582;1.470;2023-02-01T16:03:49;3.58;;;1.70;;
65583;SDS011;62116;43.582;1.470;2023-02-01T16:06:50;12.93;;;4.18;;
65583;SDS011;62116;43.582;1.470;2023-02-01T16:09:16;8.43;;;3.63;;
65583;SDS011;62116;43.582;1.470;2023-02-01T16:11:54;7.47;;;2.40;;
65583;SDS011;62116;43.582;1.470;2023-02-01T16:14:24;7.47;;;2.00;;
65583;SDS011;62116;43.582;1.470;2023-02-01T16:16:51;5.80;;;1.83;;
65583;SDS011;62116;43.582;1.470;2023-02-01T16:19:17;3.60;;;1.55;;
65583;SDS011;62116;43.582;1.470;2023-02-01T16:21:43;3.35;;;1.73;;
65583;SDS011;62116;43.582;1.470;2023-02-01T16:24:10;6.47;;;1.65;;
65583;SDS011;62116;43.582;1.470;2023-02-01T16:26:36;6.15;;;1.73;;
65583;SDS011;62116;43.582;1.470;2023-02-01T16:29:03;5.57;;;1.60;;
65583;SDS011;62116;43.582;1.470;2023-02-01T16:31:32;4.20;;;1.83;;
65583;SDS011;62116;43.582;1.470;2023-02-01T16:34:00;3.72;;;1.70;;
65583;SDS011;62116;43.582;1.470;2023-02-01T16:36:27;3.72;;;1.95;;
65583;SDS011;62116;43.582;1.470;2023-02-01T16:38:53;6.00;;;1.63;;
65583;SDS011;62116;43.582;1.470;2023-02-01T16:41:19;2.80;;;1.60;;
65583;SDS011;62116;43.582;1.470;2023-02-01T16:43:50;3.78;;;1.50;;
65583;SDS011;62116;43.582;1.470;2023-02-01T16:46:18;3.13;;;1.38;;
65583;SDS011;62116;43.582;1.470;2023-02-01T16:48:57;3.85;;;1.40;;
65583;SDS011;62116;43.582;1.470;2023-02-01T16:51:24;3.92;;;1.92;;
65583;SDS011;62116;43.582;1.470;2023-02-01T16:53:53;2.92;;;1.30;;
65583;SDS011;62116;43.582;1.470;2023-02-01T16:56:22;3.40;;;1.20;;
65583;SDS011;62116;43.582;1.470;2023-02-01T16:58:51;2.78;;;1.40;;
65583;SDS011;62116;43.582;1.470;2023-02-01T17:01:17;6.53;;;1.30;;
65583;SDS011;62116;43.582;1.470;2023-02-01T17:03:43;2.40;;;1.25;;
65583;SDS011;62116;43.582;1.470;2023-02-01T17:06:11;3.78;;;1.73;;
65583;SDS011;62116;43.582;1.470;2023-02-01T17:08:43;3.20;;;1.50;;
65583;SDS011;62116;43.582;1.470;2023-02-01T17:11:11;2.60;;;1.58;;
65583;SDS011;62116;43.582;1.470;2023-02-01T17:13:38;1.90;;;1.10;;